Terminal Aerodrome Forecast
Issued by NWS

Home | Current Version | Previous Version | Text Only | Print | Product List | Glossary On
Versions: 1 2 3 4 5 6 7 8 9 10 11 12 13 14 15 16 17 18 19 20 21 22 23 24 25 26 27 28 29 30 31 32 33 34 35 36
000
FTUS41 KALY 261737
TAFPSF
TAF
KPSF 261737Z 2618/2718 26008KT P6SM BKN060
     FM262000 31008KT P6SM VCSH BKN050
     FM270300 VRB03KT P6SM SCT060
     FM270900 VRB03KT P6SM MIFG SCT060
     FM271300 VRB03KT P6SM SCT060
     FM271600 23009KT P6SM VCSH BKN050=

USA.gov is the U.S. government's official web portal to all federal, state and local government web resources and services.